| Place | Name | Time | Raw score | Score |
|---|---|---|---|---|
| 1 | Freud | 2:09.64 | 1,000 | 236 |
| 2 | Kinix | 2:11.60 | 900 | 213 |
| 3 | IllKIllU | 2:14.77 | 859 | 203 |
| 4 | lEm=uS | 2:15.11 | 827 | 195 |
| 5 | Thermos | 2:15.46 | 800 | 189 |
| 6 | KnightBane | 2:16.59 | 777 | 183 |
| 7 | jason | 2:16.66 | 756 | 179 |
| 8 | Zany | 2:18.24 | 736 | 174 |
| 9 | XiQu3sT | 2:18.65 | 718 | 170 |
| 9 | NicholasKB19 | 2:18.65 | 718 | 170 |
| 11 | FluffyTheZombii | 2:19.24 | 684 | 162 |
| 12 | Azure | 2:19.28 | 669 | 158 |
| 13 | Sayrix | 2:19.32 | 654 | 154 |
| 14 | slug ʕ●.●ʔ | 2:19.53 | 640 | 151 |
| 15 | Waonder | 2:19.54 | 626 | 148 |
| 16 | RetaliationGuy YT | 2:19.78 | 613 | 145 |
| 17 | SEVEN | 2:19.96 | 600 | 142 |
| 18 | Yarimi | 2:20.07 | 588 | 139 |
| 19 | Sidewinder Fang | 2:20.31 | 576 | 136 |
| 20 | G9 | 2:20.50 | 565 | 133 |
| 21 | Other XIX | 2:20.60 | 553 | 131 |
| 22 | Bridge | 2:20.79 | 542 | 128 |
| 23 | Draygone | 2:20.88 | 531 | 125 |
| 24 | matheus paiva | 2:20.96 | 521 | 123 |
| 25 | Dreigo | 2:20.98 | 511 | 121 |
| 26 | i0nTempest | 2:21.08 | 500 | 118 |
| 27 | LobaDK | 2:21.25 | 491 | 116 |
| 28 | danny1234331 | 2:21.35 | 481 | 114 |
| 29 | bacon | 2:21.41 | 471 | 111 |
| 30 | Birb | 2:21.64 | 462 | 109 |
| 31 | Jay2a | 2:21.66 | 453 | 107 |
| 32 | TS_Mind_Swept | 2:21.88 | 444 | 105 |
| 33 | SlowScan | 2:21.92 | 435 | 103 |
| 34 | Corecii | 2:21.94 | 426 | 101 |
| 35 | The Blue Fox | 2:21.95 | 417 | 98 |
| 36 | Seekr | 2:22.05 | 409 | 97 |
| 37 | Bread | 2:22.20 | 400 | 94 |
| 38 | Backgrounds' | 2:22.52 | 392 | 93 |
| 39 | h | 2:22.54 | 384 | 91 |
| 40 | Tem | 2:22.56 | 376 | 89 |
| 41 | Azure Zakura | 2:22.61 | 368 | 87 |
| 42 | Earthnuker | 2:22.65 | 360 | 85 |
| 43 | pigpenguin | 2:22.94 | 352 | 83 |
| 43 | Moonie | 2:22.94 | 352 | 83 |
| 45 | ^1WᴀʀᴘWɪʀᴇ | 2:22.96 | 337 | 80 |
| 46 | Iris | 2:23.26 | 330 | 78 |
| 47 | Torja! | 2:23.86 | 322 | 76 |
| 48 | ash | 2:24.64 | 315 | 74 |
| 49 | Paparazzi | 2:25.09 | 308 | 73 |
| 50 | BlacKat | 2:25.45 | 300 | 71 |
| 51 | lefor0416 | 2:25.72 | 293 | 69 |
| 52 | Nico | 2:26.09 | 286 | 68 |
| 53 | LissomChunk | 2:26.18 | 279 | 66 |
| 54 | russ117 | 2:26.49 | 272 | 64 |
| 55 | Sébastien Lecornu II | 2:26.55 | 266 | 63 |
| 56 | Artifact | 2:26.59 | 259 | 61 |
| 57 | Californ1a | 2:26.76 | 252 | 60 |
| 58 | sockpuppetkingdom | 2:27.15 | 246 | 58 |
| 59 | WiteNite | 2:27.22 | 239 | 56 |
| 60 | Beets by Farmer Dre | 2:27.36 | 232 | 55 |
| 61 | Derdoron | 2:27.39 | 226 | 53 |
| 62 | M500 | 2:27.45 | 219 | 52 |
| 62 | [deleted] | 2:27.45 | 219 | 52 |
| 64 | DefenderOfHyrule | 2:27.46 | 207 | 49 |
| 65 | Dimitri | 2:27.55 | 200 | 47 |
| 66 | GaiaGaiyus | 2:27.60 | 194 | 46 |
| 67 | Spiffy | 2:27.74 | 188 | 44 |
| 68 | Hotride | 2:27.80 | 182 | 43 |
| 69 | Woody | 2:27.83 | 176 | 42 |
| 70 | rezzonating | 2:27.98 | 170 | 40 |
| 71 | Mr. Doggy | 2:28.06 | 164 | 39 |
| 72 | 16aroth6 | 2:28.14 | 158 | 37 |
| 73 | Tribow | 2:28.15 | 152 | 36 |
| 74 | Junkie | 2:28.19 | 146 | 34 |
| 75 | Jimmy Gibbs | 2:28.36 | 140 | 33 |
| 76 | ForlornStag | 2:28.39 | 134 | 32 |
| 77 | DisQorded | 2:28.41 | 129 | 30 |
| 78 | ant | 2:28.49 | 123 | 29 |
| 78 | Fushiggy | 2:28.49 | 123 | 29 |
| 80 | ✱ Ale | 2:28.51 | 112 | 26 |
| 81 | Latapi | 2:28.52 | 106 | 25 |
| 82 | RaiderZulu | 2:28.64 | 100 | 24 |
| 83 | Papa Scorch | 2:28.68 | 95 | 22 |
| 84 | EnderKill98 | 2:28.71 | 89 | 21 |
| 85 | Dorphan | 2:28.74 | 84 | 20 |
| 86 | MrUnbecoming | 2:28.75 | 79 | 19 |
| 87 | Shin Kamen Red | 2:28.84 | 73 | 17 |
| 88 | Sniggles | 2:28.87 | 68 | 16 |
| 89 | Iggulden | 2:28.91 | 62 | 15 |
| 90 | Гвоздь | 2:28.92 | 57 | 13 |
| 91 | kriz_chan | 2:28.93 | 52 | 12 |
| 91 | Void Concept | 2:28.93 | 52 | 12 |
| 93 | [deleted] | 2:28.96 | 41 | 10 |
| 94 | NoBody | 2:28.98 | 36 | 9 |
| 95 | Ame | 2:29.07 | 31 | 7 |
| 96 | [TSA] Siggi | 2:29.09 | 26 | 6 |
| 97 | TheMelonGod | 2:29.21 | 21 | 5 |
| 98 | The Good Gaming Dragon | 2:29.23 | 16 | 4 |
| 99 | Kornflake | 2:29.29 | 11 | 3 |
| 99 | Enzyme Machine | 2:29.29 | 11 | 3 |
| 101 | khrisround2 | 2:29.33 | 0 | 0 |
| 102 | Fire Claw | 2:29.37 | 0 | 0 |
| 102 | Viridus | 2:29.37 | 0 | 0 |
| 104 | Justin | 2:29.39 | 0 | 0 |
| 105 | Mr. $7.63 | 2:29.45 | 0 | 0 |
| 106 | Mr. Grizz | 2:29.46 | 0 | 0 |
| 107 | itsukarine | 2:29.49 | 0 | 0 |
| 108 | Vyneci | 2:29.50 | 0 | 0 |
| 109 | The Unusual Suspect | 2:29.52 | 0 | 0 |
| 110 | DROCHEPOLK | 2:29.53 | 0 | 0 |
| 111 | Apocalyptic Bunny | 2:29.56 | 0 | 0 |
| 112 | Tuli | 2:29.57 | 0 | 0 |
| 113 | skuzzzy | 2:29.66 | 0 | 0 |
| 113 | Gyodesis | 2:29.66 | 0 | 0 |
| 115 | A Moldy Orange | 2:29.70 | 0 | 0 |
| 116 | TheJewelThief | 2:29.74 | 0 | 0 |
| 117 | JacquetheRipper | 2:29.80 | 0 | 0 |
| 118 | Ultor | 2:29.82 | 0 | 0 |
| 119 | Big Boi Bazunga | 2:29.83 | 0 | 0 |
| 120 | TinFoilMkIV | 2:29.94 | 0 | 0 |
| 121 | BuzZoiD | 2:30.09 | 0 | 0 |
| 122 | Lutzman Swanz | 2:30.18 | 0 | 0 |
| 123 | Zomitsu | 2:30.29 | 0 | 0 |
| 124 | Yak-Yo! | 2:30.31 | 0 | 0 |
| 125 | Duhphlates | 2:30.33 | 0 | 0 |
| 125 | Caradog | 2:30.33 | 0 | 0 |
| 127 | AmberEmpress | 2:30.40 | 0 | 0 |
| 128 | polybius99 | 2:30.52 | 0 | 0 |
| 129 | Disatroja | 2:30.58 | 0 | 0 |
| 130 | Hars | 2:30.66 | 0 | 0 |
| 131 | Greenfire DX | 2:30.68 | 0 | 0 |
| 132 | 문경왕개미 | 2:30.69 | 0 | 0 |
| 132 | Nerf | 2:30.69 | 0 | 0 |
| 134 | Keiyo | 2:30.73 | 0 | 0 |
| 134 | CrazyMaurice120 | 2:30.73 | 0 | 0 |
| 136 | Crubo | 2:30.80 | 0 | 0 |
| 137 | crozak | 2:30.81 | 0 | 0 |
| 137 | Kavayito | 2:30.81 | 0 | 0 |
| 139 | Haunted Pleb | 2:30.84 | 0 | 0 |
| 140 | Overlord | 2:30.87 | 0 | 0 |
| 141 | Zegorrie | 2:30.88 | 0 | 0 |
| 141 | Spaceburger | 2:30.88 | 0 | 0 |
| 143 | Royal | Lone | 2:31.01 | 0 | 0 |
| 144 | [Lard] Kriltch | 2:31.02 | 0 | 0 |
| 145 | Rebel Ben | 2:31.05 | 0 | 0 |
| 146 | Blexyde | 2:31.10 | 0 | 0 |
| 146 | Alrunes | 2:31.10 | 0 | 0 |
| 148 | Old Bastard | 2:31.29 | 0 | 0 |
| 149 | Screws | 2:31.32 | 0 | 0 |
| 150 | Sartha | 2:31.33 | 0 | 0 |
| 151 | Caffeine Cat | 2:31.41 | 0 | 0 |
| 152 | Blahaj Blast | 2:31.45 | 0 | 0 |
| 153 | Bistdocs | 2:31.50 | 0 | 0 |
| 154 | Shadiest | 2:31.54 | 0 | 0 |
| 154 | Cyero | 2:31.54 | 0 | 0 |
| 154 | ReallyDumbFox | 2:31.54 | 0 | 0 |
| 157 | GOOSE SATAN! | 2:31.69 | 0 | 0 |
| 158 | TheEvilMidnightBomber | 2:31.70 | 0 | 0 |
| 159 | Plasmawario | 2:31.84 | 0 | 0 |
| 160 | PalmTopDuck | 2:31.89 | 0 | 0 |
| 161 | Leviticus Blue | 2:31.98 | 0 | 0 |
| 162 | Corn | 2:31.99 | 0 | 0 |
| 163 | Meda | 2:32.00 | 0 | 0 |
| 164 | Æurora | 2:32.05 | 0 | 0 |
| 165 | raviolifun | 2:32.37 | 0 | 0 |
| 165 | Kenaz | 2:32.37 | 0 | 0 |
| 167 | aro3o6 | 2:32.45 | 0 | 0 |
| 168 | YoloMoth | 2:32.89 | 0 | 0 |
| 169 | Ape Tea | 2:32.97 | 0 | 0 |
| 170 | zidane4000 | 2:32.99 | 0 | 0 |
| 171 | Verity | 2:33.47 | 0 | 0 |
| 172 | Tim From HR | 2:33.48 | 0 | 0 |
| 173 | thebigbluesky | 2:33.62 | 0 | 0 |
| 174 | Silver~ | 2:33.71 | 0 | 0 |
| 174 | Frayboy15 | 2:33.71 | 0 | 0 |
| 176 | Queritz | 2:33.91 | 0 | 0 |
| 176 | gusforester | 2:33.91 | 0 | 0 |
| 178 | Clue | 2:33.95 | 0 | 0 |
| 179 | MarsDevastater | 2:34.02 | 0 | 0 |
| 180 | Taro | 2:34.05 | 0 | 0 |
| 181 | PineFreshGuy | 2:34.08 | 0 | 0 |
| 182 | McFolt | 2:34.17 | 0 | 0 |
| 183 | Kurh | 2:34.27 | 0 | 0 |
| 184 | Grimn | 2:34.28 | 0 | 0 |
| 185 | Seithri | 2:34.30 | 0 | 0 |
| 186 | Luxury Slut™ | 2:34.31 | 0 | 0 |
| 187 | Taelu | 2:34.35 | 0 | 0 |
| 188 | Zombie | 2:34.48 | 0 | 0 |
| 189 | Roggee | 2:34.50 | 0 | 0 |
| 190 | krashy | 2:34.52 | 0 | 0 |
| 191 | pox | 2:34.53 | 0 | 0 |
| 192 | LittleHappyWolf | 2:34.68 | 0 | 0 |
| 193 | Boucoque | 2:34.77 | 0 | 0 |
| 194 | Aluka Takumashiiō | 2:34.80 | 0 | 0 |
| 195 | Bittarello | 2:34.88 | 0 | 0 |
| 195 | JSL | 2:34.88 | 0 | 0 |
| 197 | OnyonSwomp | 2:34.93 | 0 | 0 |
| 198 | Blex | 2:34.96 | 0 | 0 |
| 199 | delfiler | 2:35.02 | 0 | 0 |
| 199 | Wizard the Wizard | 2:35.02 | 0 | 0 |
| 201 | evi11y | 2:35.05 | 0 | 0 |
| 202 | Ruina Last | 2:35.06 | 0 | 0 |
| 203 | Jarek718 | 2:35.12 | 0 | 0 |
| 204 | CuddleStrike | 2:35.14 | 0 | 0 |
| 204 | Bad Karma | 2:35.14 | 0 | 0 |
| 206 | rbrules | 2:35.42 | 0 | 0 |
| 207 | TheGoldenPear | 2:35.43 | 0 | 0 |
| 208 | Pardner | 2:35.55 | 0 | 0 |
| 209 | Eikunai | 2:35.68 | 0 | 0 |
| 210 | // Vaffe | 2:35.78 | 0 | 0 |
| 211 | Nephuxs | 2:35.89 | 0 | 0 |
| 212 | Despo_357 | 2:36.10 | 0 | 0 |
| 213 | Brother J'dinklage | 2:36.19 | 0 | 0 |
| 213 | MAT D.R.⎛⎝≥⏝⏝≤⎠⎞ | 2:36.19 | 0 | 0 |
| 215 | Siwy | 2:36.27 | 0 | 0 |
| 216 | Raiden925 | 2:36.53 | 0 | 0 |
| 217 | Splatsune Miku | 2:36.55 | 0 | 0 |
| 218 | Ozymandias | 2:36.60 | 0 | 0 |
| 219 | VirusBoom | 2:36.67 | 0 | 0 |
| 220 | zeyatsu. | 2:36.82 | 0 | 0 |
| 221 | KWP | 2:36.83 | 0 | 0 |
| 222 | WorkingChickenMH | 2:36.94 | 0 | 0 |
| 223 | Simon Evo | 2:36.95 | 0 | 0 |
| 224 | GTNeon | 2:37.02 | 0 | 0 |
| 225 | IvoratiK | 2:37.14 | 0 | 0 |
| 225 | Tigger | 2:37.14 | 0 | 0 |
| 227 | Winter's Crescendo | 2:37.15 | 0 | 0 |
| 228 | rz zombie | 2:37.31 | 0 | 0 |
| 228 | Dracheron | 2:37.31 | 0 | 0 |
| 230 | Piiec | 2:37.42 | 0 | 0 |
| 231 | Naoroji | 2:37.57 | 0 | 0 |
| 232 | Rombommind | 2:37.61 | 0 | 0 |
| 233 | Macinteuch Plus | 2:37.66 | 0 | 0 |
| 234 | Sev | 2:38.10 | 0 | 0 |
| 235 | Donkey | 2:38.18 | 0 | 0 |
| 236 | ErzoopaRTR | 2:38.26 | 0 | 0 |
| 237 | Krogoth | 2:38.28 | 0 | 0 |
| 238 | FRX | 2:38.38 | 0 | 0 |
| 238 | Czechoslovakia BEDŘICH | 2:38.38 | 0 | 0 |
| 240 | Anderdingus | 2:38.42 | 0 | 0 |
| 241 | Saky23s | 2:38.54 | 0 | 0 |
| 242 | Viridian | 2:38.68 | 0 | 0 |
| 243 | Sayukki | 2:38.77 | 0 | 0 |
| 244 | Afromation | 2:38.78 | 0 | 0 |
| 245 | Lud | Forest | 2:38.80 | 0 | 0 |
| 246 | Warriot | 2:39.05 | 0 | 0 |
| 247 | baakstaff | 2:39.26 | 0 | 0 |
| 248 | Grimmy | 2:39.31 | 0 | 0 |
| 249 | Cyanide FS | 2:39.33 | 0 | 0 |
| 250 | Indy1984 | 2:39.39 | 0 | 0 |
| 251 | SparkyCrusader | 2:39.50 | 0 | 0 |
| 252 | Western Ice Noodle | 2:39.51 | 0 | 0 |
| 253 | Mathias | 2:40.25 | 0 | 0 |
| 254 | Wayne | 2:40.32 | 0 | 0 |
| 255 | Razgriez | 2:40.37 | 0 | 0 |
| 256 | Cookie Dealer | 2:40.40 | 0 | 0 |
| 257 | Maj. Pegger | 2:40.53 | 0 | 0 |
| 258 | AVeryTastyCactus | 2:40.80 | 0 | 0 |
| 259 | Ditzy_Set | 2:40.92 | 0 | 0 |
| 260 | LachenJager | 2:41.17 | 0 | 0 |
| 261 | A̶͓̓z̷͓̍ũ̴̩r̷͔͐e̴ | 2:41.18 | 0 | 0 |
| 262 | lord commander | 2:41.30 | 0 | 0 |
| 263 | Cptnbean | 2:41.53 | 0 | 0 |
| 264 | pink | 2:41.58 | 0 | 0 |
| 265 | Moodeng | 2:41.64 | 0 | 0 |
| 266 | Spoofie | 2:41.65 | 0 | 0 |
| 267 | Zarifi | 2:41.73 | 0 | 0 |
| 268 | fischpferd | 2:41.91 | 0 | 0 |
| 269 | Eddie980® | 2:41.96 | 0 | 0 |
| 270 | Exceige | 2:42.23 | 0 | 0 |
| 271 | Tenth | 2:42.33 | 0 | 0 |
| 272 | Thr | 2:42.57 | 0 | 0 |
| 273 | Coopstar2323 | 2:42.58 | 0 | 0 |
| 274 | Benji | 2:42.75 | 0 | 0 |
| 275 | CMDRVITELL | 2:42.83 | 0 | 0 |
| 276 | BK Trombley | 2:43.10 | 0 | 0 |
| 277 | DomNation | 2:43.12 | 0 | 0 |
| 278 | Carrots Pringle | 2:43.23 | 0 | 0 |
| 279 | Pompous Whale | 2:43.49 | 0 | 0 |
| 280 | NuggetTheBigBoi | 2:43.69 | 0 | 0 |
| 281 | JayBoneJay | 2:43.98 | 0 | 0 |
| 282 | ZleePy | 2:43.99 | 0 | 0 |
| 283 | Zodiac | 2:44.07 | 0 | 0 |
| 284 | Frozen Dino | 2:44.47 | 0 | 0 |
| 285 | Dragnar The Meme God | 2:44.69 | 0 | 0 |
| 286 | Mr Elusive | 2:44.85 | 0 | 0 |
| 287 | 𝔼ℝ𝔸ℤ𝔼ℝ | 2:44.97 | 0 | 0 |
| 288 | galactic depression | 2:45.27 | 0 | 0 |
| 288 | Duke Jukem | 2:45.27 | 0 | 0 |
| 290 | Luxora | 2:45.52 | 0 | 0 |
| 291 | HJQLF | 2:45.74 | 0 | 0 |
| 292 | Althalus | 2:45.78 | 0 | 0 |
| 293 | --TuttiFrutti-- | 2:46.10 | 0 | 0 |
| 293 | RE-L | 2:46.10 | 0 | 0 |
| 295 | Darwinia | 2:46.50 | 0 | 0 |
| 296 | erlo68 | 2:46.52 | 0 | 0 |
| 297 | Dabwolf135 | 2:46.60 | 0 | 0 |
| 298 | Pteroborne | 2:46.68 | 0 | 0 |
| 299 | Spearmint | 2:46.85 | 0 | 0 |
| 300 | FifteenBread | 2:46.93 | 0 | 0 |
| 301 | ElHombre86 | 2:46.98 | 0 | 0 |
| 302 | GetEmOtterHere | 2:47.21 | 0 | 0 |
| 303 | Maxter Max | 2:47.35 | 0 | 0 |
| 303 | Danielwow | 2:47.35 | 0 | 0 |
| 305 | Predatory_Balloon | 2:47.45 | 0 | 0 |
| 306 | TEZZA | 2:47.74 | 0 | 0 |
| 307 | throbbing_fish | 2:48.04 | 0 | 0 |
| 308 | Bad at lief | 2:48.33 | 0 | 0 |
| 309 | Portal Blinx | 2:48.34 | 0 | 0 |
| 310 | Add1son2013 | 2:48.71 | 0 | 0 |
| 311 | Cody | 2:48.92 | 0 | 0 |
| 312 | arcarijo486 | 2:48.94 | 0 | 0 |
| 313 | kuba | 2:49.14 | 0 | 0 |
| 314 | doomsday device | 2:49.16 | 0 | 0 |
| 315 | Ḿåy Ťøøţĉhēř | 2:49.37 | 0 | 0 |
| 316 | キタ一一(゚∀゚)一一!! | 2:49.44 | 0 | 0 |
| 317 | Yes, I *do main this character | 2:50.02 | 0 | 0 |
| 318 | NathanR | 2:50.11 | 0 | 0 |
| 319 | SkyCaptain502 | 2:50.15 | 0 | 0 |
| 320 | Blacky Stranger | 2:50.17 | 0 | 0 |
| 321 | volrok | 2:50.34 | 0 | 0 |
| 322 | marf | 2:50.35 | 0 | 0 |
| 323 | Zoey Blackwood | 2:50.42 | 0 | 0 |
| 324 | CodedCrow | 2:50.63 | 0 | 0 |
| 325 | Havoc | 2:51.09 | 0 | 0 |
| 326 | Líong Phük | 2:51.27 | 0 | 0 |
| 327 | Jezo | 2:51.37 | 0 | 0 |
| 328 | Weird Pumpkin | 2:51.68 | 0 | 0 |
| 329 | Jarminx | 2:51.89 | 0 | 0 |
| 330 | Jutkutus | 2:52.83 | 0 | 0 |
| 331 | Qioury | 2:52.96 | 0 | 0 |
| 332 | Pinapl | 2:53.73 | 0 | 0 |
| 333 | Austint30 | 2:53.80 | 0 | 0 |
| 334 | Rae Static | 2:53.81 | 0 | 0 |
| 335 | DevinShadowV | 2:53.89 | 0 | 0 |
| 336 | RL | 2:53.98 | 0 | 0 |
| 337 | SUDOCIVID | 2:54.17 | 0 | 0 |
| 338 | Athice | 2:54.67 | 0 | 0 |
| 339 | Songbird | 2:54.76 | 0 | 0 |
| 340 | CygnusAutomata | 2:55.22 | 0 | 0 |
| 341 | samson13 | 2:55.28 | 0 | 0 |
| 342 | Ejotapg | 2:55.33 | 0 | 0 |
| 343 | Pan Nikt | 2:55.90 | 0 | 0 |
| 344 | Sibsen | 2:55.97 | 0 | 0 |
| 345 | Shroom | 2:55.98 | 0 | 0 |
| 346 | Jacsn | 2:56.02 | 0 | 0 |
| 347 | GeorgGL | 2:56.26 | 0 | 0 |
| 348 | LittleKittyArtemis | 2:56.29 | 0 | 0 |
| 349 | Digital Wyvern | 2:56.31 | 0 | 0 |
| 350 | Sparkalow | 2:56.34 | 0 | 0 |
| 351 | Flightfather | 2:56.43 | 0 | 0 |
| 352 | Ceddi | 2:56.54 | 0 | 0 |
| 353 | AI FRUIT BOSS MAN | 2:57.53 | 0 | 0 |
| 354 | Tigerci | 2:58.35 | 0 | 0 |
| 355 | cob | 2:59.05 | 0 | 0 |
| 356 | SmolSucc | 2:59.40 | 0 | 0 |
| 357 | Maugan Ra | 2:59.46 | 0 | 0 |
| 358 | Skuzzles | 3:00.09 | 0 | 0 |
| 359 | ADamnDerpName | 3:00.11 | 0 | 0 |
| 360 | J*b Application | 3:00.81 | 0 | 0 |
| 361 | IndusRobot | 3:01.42 | 0 | 0 |
| 362 | Flea Stance | 3:02.16 | 0 | 0 |
| 363 | Cooler Mensch | 3:02.71 | 0 | 0 |
| 364 | Wipeout! | 3:03.16 | 0 | 0 |
| 365 | Ashton_bro | 3:03.34 | 0 | 0 |
| 366 | Neneko | 3:03.48 | 0 | 0 |
| 367 | Treme | 3:03.78 | 0 | 0 |
| 368 | LiquidShark | 3:04.21 | 0 | 0 |
| 369 | スカイライン | 3:04.86 | 0 | 0 |
| 370 | Lightshift | 3:04.94 | 0 | 0 |
| 371 | Cresity | 3:05.45 | 0 | 0 |
| 372 | Sylveen | 3:05.66 | 0 | 0 |
| 373 | RamonaSolari | 3:06.22 | 0 | 0 |
| 374 | in-term-ezzo | 3:08.14 | 0 | 0 |
| 375 | potion | 3:08.29 | 0 | 0 |
| 376 | maltejoosxd | 3:08.47 | 0 | 0 |
| 377 | TheIcyOne | 3:08.56 | 0 | 0 |
| 378 | Maru | 3:08.95 | 0 | 0 |
| 379 | TurboPasta | 3:09.63 | 0 | 0 |
| 380 | Agroman12 | 3:10.38 | 0 | 0 |
| 381 | M E L L O W | 3:10.88 | 0 | 0 |
| 382 | senglior | 3:11.24 | 0 | 0 |
| 383 | highlandskull | 3:11.57 | 0 | 0 |
| 384 | Gior26 | 3:12.44 | 0 | 0 |
| 385 | MatsDeBeste | 3:13.13 | 0 | 0 |
| 386 | RabbiT | 3:13.50 | 0 | 0 |
| 387 | Phaserlight | 3:13.89 | 0 | 0 |
| 388 | jenyjen | 3:14.00 | 0 | 0 |
| 389 | Lolo_Productions | 3:14.26 | 0 | 0 |
| 390 | tisagon | 3:15.10 | 0 | 0 |
| 391 | PartTimeCanadian | 3:15.34 | 0 | 0 |
| 391 | Redwolfy | 3:15.34 | 0 | 0 |
| 393 | NakDak | 3:16.08 | 0 | 0 |
| 394 | Duodecim | 3:16.94 | 0 | 0 |
| 395 | sendthefish | 3:17.05 | 0 | 0 |
| 396 | Petittux - 安托萬 | 3:17.24 | 0 | 0 |
| 397 | Dazzle10 | 3:17.58 | 0 | 0 |
| 398 | jmdajm7 | 3:18.20 | 0 | 0 |
| 399 | Bob Katter | 3:19.83 | 0 | 0 |
| 400 | Supra2 | 3:20.31 | 0 | 0 |
| 401 | CuteGhosty | 3:21.30 | 0 | 0 |
| 402 | BrandonK-TN | 3:21.53 | 0 | 0 |
| 403 | Brionac | 3:21.72 | 0 | 0 |
| 404 | Magistraaljager | 3:21.97 | 0 | 0 |
| 405 | Seath Salt | 3:23.12 | 0 | 0 |
| 406 | ThousandPoundPig | 3:27.00 | 0 | 0 |
| 407 | God of Darkness | 3:27.77 | 0 | 0 |
| 408 | sizifov | 3:28.35 | 0 | 0 |
| 409 | lolpokey | 3:30.18 | 0 | 0 |
| 410 | Efflux | 3:30.38 | 0 | 0 |
| 411 | bunnstie | 3:30.45 | 0 | 0 |
| 412 | Zinarik | 3:33.23 | 0 | 0 |
| 413 | elder matthew | 3:35.73 | 0 | 0 |
| 414 | cocob4 | 3:35.91 | 0 | 0 |
| 415 | [CPC] Loddfafnir | 3:37.12 | 0 | 0 |
| 416 | Chase | 3:38.12 | 0 | 0 |
| 417 | PowerLay | 3:38.39 | 0 | 0 |
| 418 | Naikel [FR] | 3:38.78 | 0 | 0 |
| 419 | Hanimani2 | 3:39.91 | 0 | 0 |
| 420 | Locura | 3:43.40 | 0 | 0 |
| 421 | Big Disk | 3:44.56 | 0 | 0 |
| 422 | Terrapin | 3:46.44 | 0 | 0 |
| 423 | Mr. Bird | 3:47.37 | 0 | 0 |
| 424 | BL!NK | 3:48.08 | 0 | 0 |
| 425 | Okamitheus | 3:50.45 | 0 | 0 |
| 426 | Kabelsalat | 3:53.58 | 0 | 0 |
| 427 | IsoSheepington | 3:55.31 | 0 | 0 |
| 428 | meche-san | 3:57.03 | 0 | 0 |
| 429 | Synthwave2003 | 4:01.87 | 0 | 0 |
| 430 | SP** | 4:02.41 | 0 | 0 |
| 431 | Carlos | 4:03.83 | 0 | 0 |
| 432 | sevenofnone | 4:04.11 | 0 | 0 |
| 433 | krizithy | 4:05.23 | 0 | 0 |
| 434 | Kinroko | 4:11.80 | 0 | 0 |
| 435 | igrekx | 4:12.52 | 0 | 0 |
| 436 | Governor Tekagi | 4:22.86 | 0 | 0 |
| 437 | Loc's DeR♠Athée | 4:23.93 | 0 | 0 |
| 438 | Butifarra | 4:24.67 | 0 | 0 |
| 439 | Skinny Chrinis | 4:26.10 | 0 | 0 |
| 440 | DamnedDeyvid | 4:33.37 | 0 | 0 |
| 441 | Sunnydan | 4:39.44 | 0 | 0 |
| 442 | 25 минут кайфа | 4:40.73 | 0 | 0 |
| 443 | Z0ych | 4:48.32 | 0 | 0 |
| 444 | [deleted] | 4:53.98 | 0 | 0 |
| 445 | Irri | 4:54.72 | 0 | 0 |
| 446 | 1Hp♰ | 4:55.98 | 0 | 0 |
| 447 | smashingdrop17 | 4:58.65 | 0 | 0 |
| 448 | PennyPincher | 4:58.69 | 0 | 0 |
| 449 | concil | 5:02.82 | 0 | 0 |
| 450 | koneko | 5:02.92 | 0 | 0 |
| 451 | gmatsam32 | 5:11.70 | 0 | 0 |
| 452 | Kotz | 5:23.54 | 0 | 0 |
| 453 | DobreBobre | 5:26.74 | 0 | 0 |
| 454 | Yoshuga | 5:27.75 | 0 | 0 |
| 455 | Epsilon_Knight | 5:43.65 | 0 | 0 |
| 456 | The Biggest [REDACTED] Ogre | 6:19.42 | 0 | 0 |
| 457 | BesRezen | 6:26.05 | 0 | 0 |
| 458 | BugJams | 6:26.82 | 0 | 0 |
| 459 | Baldwin | 6:52.92 | 0 | 0 |
| 460 | sasha | 6:58.68 | 0 | 0 |
| 461 | Lluks | 7:20.18 | 0 | 0 |
| 462 | jaime21 | 21:08.66 | 0 | 0 |
HoldGrip